sensor_id;sensor_type;location;lat;lon;timestamp;pressure;altitude;pressure_sealevel;temperature;humidity
57606;BME280;43430;48.204;11.556;2023-01-27T00:01:30;96116.47;;;-1.73;100.00
57606;BME280;43430;48.204;11.556;2023-01-27T00:03:55;96124.94;;;-1.80;100.00
57606;BME280;43430;48.204;11.556;2023-01-27T00:06:20;96124.44;;;-1.94;100.00
57606;BME280;43430;48.204;11.556;2023-01-27T00:08:46;96120.31;;;-1.77;100.00
57606;BME280;43430;48.204;11.556;2023-01-27T00:11:11;96123.41;;;-1.73;100.00
57606;BME280;43430;48.204;11.556;2023-01-27T00:13:55;96121.59;;;-1.63;100.00
57606;BME280;43430;48.204;11.556;2023-01-27T00:16:21;96110.16;;;-1.60;100.00
57606;BME280;43430;48.204;11.556;2023-01-27T00:18:46;96114.53;;;-1.61;100.00
57606;BME280;43430;48.204;11.556;2023-01-27T00:21:11;96101.50;;;-1.69;100.00
57606;BME280;43430;48.204;11.556;2023-01-27T00:23:55;96096.31;;;-1.69;100.00
57606;BME280;43430;48.204;11.556;2023-01-27T00:26:40;96106.00;;;-1.71;100.00
57606;BME280;43430;48.204;11.556;2023-01-27T00:29:05;96102.91;;;-1.84;100.00
57606;BME280;43430;48.204;11.556;2023-01-27T00:31:31;96096.75;;;-1.74;100.00
57606;BME280;43430;48.204;11.556;2023-01-27T00:34:15;96099.06;;;-1.71;100.00
57606;BME280;43430;48.204;11.556;2023-01-27T00:36:41;96096.03;;;-1.66;100.00
57606;BME280;43430;48.204;11.556;2023-01-27T00:39:08;96097.81;;;-1.67;100.00
57606;BME280;43430;48.204;11.556;2023-01-27T00:41:34;96096.03;;;-1.66;100.00
57606;BME280;43430;48.204;11.556;2023-01-27T00:44:00;96096.72;;;-1.64;100.00
57606;BME280;43430;48.204;11.556;2023-01-27T00:46:26;96093.84;;;-1.61;100.00
57606;BME280;43430;48.204;11.556;2023-01-27T00:48:52;96092.03;;;-1.78;100.00
57606;BME280;43430;48.204;11.556;2023-01-27T00:51:18;96092.13;;;-1.70;100.00
57606;BME280;43430;48.204;11.556;2023-01-27T00:53:44;96104.84;;;-1.59;100.00
57606;BME280;43430;48.204;11.556;2023-01-27T00:56:10;96096.28;;;-1.59;100.00
57606;BME280;43430;48.204;11.556;2023-01-27T00:58:36;96099.03;;;-1.61;100.00
57606;BME280;43430;48.204;11.556;2023-01-27T01:01:04;96097.09;;;-1.59;100.00
57606;BME280;43430;48.204;11.556;2023-01-27T01:03:31;96106.09;;;-1.63;100.00
57606;BME280;43430;48.204;11.556;2023-01-27T01:06:03;96109.16;;;-1.77;100.00
57606;BME280;43430;48.204;11.556;2023-01-27T01:08:30;96106.28;;;-2.21;100.00
57606;BME280;43430;48.204;11.556;2023-01-27T01:10:56;96118.28;;;-2.30;100.00
57606;BME280;43430;48.204;11.556;2023-01-27T01:13:22;96116.22;;;-2.36;100.00
57606;BME280;43430;48.204;11.556;2023-01-27T01:15:47;96125.22;;;-2.30;100.00
57606;BME280;43430;48.204;11.556;2023-01-27T01:18:13;96134.69;;;-2.21;100.00
57606;BME280;43430;48.204;11.556;2023-01-27T01:20:41;96134.69;;;-2.21;100.00
57606;BME280;43430;48.204;11.556;2023-01-27T01:23:07;96122.72;;;-2.12;100.00
57606;BME280;43430;48.204;11.556;2023-01-27T01:25:33;96127.03;;;-2.03;100.00
57606;BME280;43430;48.204;11.556;2023-01-27T01:28:00;96137.78;;;-1.98;100.00
57606;BME280;43430;48.204;11.556;2023-01-27T01:30:25;96125.56;;;-1.96;100.00
57606;BME280;43430;48.204;11.556;2023-01-27T01:32:55;96116.69;;;-1.94;100.00
57606;BME280;43430;48.204;11.556;2023-01-27T01:35:21;96121.91;;;-2.13;100.00
57606;BME280;43430;48.204;11.556;2023-01-27T01:37:47;96122.84;;;-2.14;100.00
57606;BME280;43430;48.204;11.556;2023-01-27T01:40:13;96121.81;;;-2.41;100.00
57606;BME280;43430;48.204;11.556;2023-01-27T01:43:05;96119.09;;;-2.29;100.00
57606;BME280;43430;48.204;11.556;2023-01-27T01:48:06;96104.41;;;-2.39;100.00
57606;BME280;43430;48.204;11.556;2023-01-27T01:50:34;96098.97;;;-2.26;100.00
57606;BME280;43430;48.204;11.556;2023-01-27T01:53:00;96091.75;;;-2.32;100.00
57606;BME280;43430;48.204;11.556;2023-01-27T01:55:29;96084.81;;;-2.31;100.00
57606;BME280;43430;48.204;11.556;2023-01-27T01:57:55;96087.81;;;-2.26;100.00
57606;BME280;43430;48.204;11.556;2023-01-27T02:00:21;96093.00;;;-2.55;100.00
57606;BME280;43430;48.204;11.556;2023-01-27T02:02:48;96100.31;;;-2.22;100.00
57606;BME280;43430;48.204;11.556;2023-01-27T02:05:21;96101.09;;;-2.11;100.00
57606;BME280;43430;48.204;11.556;2023-01-27T02:08:08;96123.13;;;-2.17;100.00
57606;BME280;43430;48.204;11.556;2023-01-27T02:10:36;96120.97;;;-2.22;100.00
57606;BME280;43430;48.204;11.556;2023-01-27T02:13:01;96111.06;;;-2.26;100.00
57606;BME280;43430;48.204;11.556;2023-01-27T02:15:28;96100.72;;;-2.26;100.00
57606;BME280;43430;48.204;11.556;2023-01-27T02:17:54;96090.94;;;-2.23;100.00
57606;BME280;43430;48.204;11.556;2023-01-27T02:20:37;96088.88;;;-2.19;100.00
57606;BME280;43430;48.204;11.556;2023-01-27T02:28:38;96107.13;;;-2.30;100.00
57606;BME280;43430;48.204;11.556;2023-01-27T02:31:04;96100.31;;;-2.31;100.00
57606;BME280;43430;48.204;11.556;2023-01-27T02:33:29;96100.88;;;-2.38;100.00
57606;BME280;43430;48.204;11.556;2023-01-27T02:38:33;96107.94;;;-2.40;100.00
57606;BME280;43430;48.204;11.556;2023-01-27T02:41:07;96104.81;;;-2.33;100.00
57606;BME280;43430;48.204;11.556;2023-01-27T02:43:34;96102.63;;;-2.38;100.00
57606;BME280;43430;48.204;11.556;2023-01-27T02:45:59;96107.69;;;-2.36;100.00
57606;BME280;43430;48.204;11.556;2023-01-27T02:48:24;96108.06;;;-2.41;100.00
57606;BME280;43430;48.204;11.556;2023-01-27T02:50:50;96109.56;;;-2.39;100.00
57606;BME280;43430;48.204;11.556;2023-01-27T02:53:15;96101.00;;;-2.29;100.00
57606;BME280;43430;48.204;11.556;2023-01-27T02:55:40;96093.38;;;-2.31;100.00
57606;BME280;43430;48.204;11.556;2023-01-27T02:58:06;96097.22;;;-2.45;100.00
57606;BME280;43430;48.204;11.556;2023-01-27T03:00:31;96105.63;;;-2.33;100.00
57606;BME280;43430;48.204;11.556;2023-01-27T03:02:57;96089.88;;;-2.30;100.00
57606;BME280;43430;48.204;11.556;2023-01-27T03:05:22;96094.22;;;-2.40;100.00
57606;BME280;43430;48.204;11.556;2023-01-27T03:07:48;96102.63;;;-2.38;100.00
57606;BME280;43430;48.204;11.556;2023-01-27T03:10:13;96107.94;;;-2.40;100.00
57606;BME280;43430;48.204;11.556;2023-01-27T03:12:38;96103.88;;;-2.32;100.00
57606;BME280;43430;48.204;11.556;2023-01-27T03:15:04;96095.44;;;-2.34;100.00
57606;BME280;43430;48.204;11.556;2023-01-27T03:17:48;96108.06;;;-2.41;100.00
57606;BME280;43430;48.204;11.556;2023-01-27T03:20:32;96104.28;;;-2.47;100.00
57606;BME280;43430;48.204;11.556;2023-01-27T03:22:57;96105.25;;;-2.48;100.00
57606;BME280;43430;48.204;11.556;2023-01-27T03:25:23;96104.03;;;-2.53;100.00
57606;BME280;43430;48.204;11.556;2023-01-27T03:27:48;96105.25;;;-2.48;100.00
57606;BME280;43430;48.204;11.556;2023-01-27T03:30:14;96097.78;;;-2.60;100.00
57606;BME280;43430;48.204;11.556;2023-01-27T03:32:39;96104.44;;;-2.58;100.00
57606;BME280;43430;48.204;11.556;2023-01-27T03:35:14;96096.41;;;-2.55;100.00
57606;BME280;43430;48.204;11.556;2023-01-27T03:37:40;96100.47;;;-2.43;100.00
57606;BME280;43430;48.204;11.556;2023-01-27T03:40:25;96102.38;;;-2.45;100.00
57606;BME280;43430;48.204;11.556;2023-01-27T03:43:10;96089.47;;;-2.45;100.00
57606;BME280;43430;48.204;11.556;2023-01-27T03:45:54;96090.25;;;-2.34;100.00
57606;BME280;43430;48.204;11.556;2023-01-27T03:48:39;96092.88;;;-2.44;100.00
57606;BME280;43430;48.204;11.556;2023-01-27T03:51:06;96093.13;;;-2.38;100.00
57606;BME280;43430;48.204;11.556;2023-01-27T03:53:33;96090.41;;;-2.36;100.00
57606;BME280;43430;48.204;11.556;2023-01-27T03:55:59;96093.97;;;-2.47;100.00
57606;BME280;43430;48.204;11.556;2023-01-27T03:58:29;96095.19;;;-2.60;100.00
57606;BME280;43430;48.204;11.556;2023-01-27T04:00:57;96104.19;;;-2.65;100.00
57606;BME280;43430;48.204;11.556;2023-01-27T04:03:26;96105.25;;;-2.57;100.00
57606;BME280;43430;48.204;11.556;2023-01-27T04:06:19;96105.53;;;-2.60;100.00
57606;BME280;43430;48.204;11.556;2023-01-27T04:09:06;96097.34;;;-2.46;100.00
57606;BME280;43430;48.204;11.556;2023-01-27T04:11:32;96091.13;;;-2.53;100.00
57606;BME280;43430;48.204;11.556;2023-01-27T04:14:17;96105.00;;;-2.54;100.00
57606;BME280;43430;48.204;11.556;2023-01-27T04:16:42;96101.28;;;-2.52;100.00
57606;BME280;43430;48.204;11.556;2023-01-27T04:19:10;96102.66;;;-2.48;100.00
57606;BME280;43430;48.204;11.556;2023-01-27T04:21:35;96096.00;;;-2.50;100.00
57606;BME280;43430;48.204;11.556;2023-01-27T04:24:01;96095.47;;;-2.44;100.00
57606;BME280;43430;48.204;11.556;2023-01-27T04:26:28;96093.53;;;-2.42;100.00
57606;BME280;43430;48.204;11.556;2023-01-27T04:29:03;96086.88;;;-2.35;100.00
57606;BME280;43430;48.204;11.556;2023-01-27T04:31:30;96087.03;;;-2.36;100.00
57606;BME280;43430;48.204;11.556;2023-01-27T04:33:56;96072.88;;;-2.32;100.00
57606;BME280;43430;48.204;11.556;2023-01-27T04:36:22;96087.56;;;-2.33;100.00
57606;BME280;43430;48.204;11.556;2023-01-27T04:38:47;96080.47;;;-2.31;100.00
57606;BME280;43430;48.204;11.556;2023-01-27T04:41:12;96086.16;;;-2.18;100.00
57606;BME280;43430;48.204;11.556;2023-01-27T04:43:38;96088.03;;;-2.10;100.00
57606;BME280;43430;48.204;11.556;2023-01-27T04:46:03;96084.78;;;-2.12;100.00
57606;BME280;43430;48.204;11.556;2023-01-27T04:48:29;96086.44;;;-2.21;100.00
57606;BME280;43430;48.204;11.556;2023-01-27T04:50:54;96081.16;;;-2.29;100.00
57606;BME280;43430;48.204;11.556;2023-01-27T04:53:19;96079.66;;;-2.31;100.00
57606;BME280;43430;48.204;11.556;2023-01-27T04:55:47;96084.81;;;-2.31;100.00
57606;BME280;43430;48.204;11.556;2023-01-27T04:58:14;96091.34;;;-2.27;100.00
57606;BME280;43430;48.204;11.556;2023-01-27T05:00:41;96082.25;;;-2.31;100.00
57606;BME280;43430;48.204;11.556;2023-01-27T05:03:06;96087.81;;;-2.26;100.00
57606;BME280;43430;48.204;11.556;2023-01-27T05:05:33;96084.53;;;-2.28;100.00
57606;BME280;43430;48.204;11.556;2023-01-27T05:08:06;96086.56;;;-2.22;100.00
57606;BME280;43430;48.204;11.556;2023-01-27T05:10:32;96083.47;;;-2.26;100.00
57606;BME280;43430;48.204;11.556;2023-01-27T05:12:57;96087.81;;;-2.26;100.00
57606;BME280;43430;48.204;11.556;2023-01-27T05:15:23;96086.16;;;-2.27;100.00
57606;BME280;43430;48.204;11.556;2023-01-27T05:17:49;96085.22;;;-2.26;100.00
57606;BME280;43430;48.204;11.556;2023-01-27T05:20:15;96087.00;;;-2.27;100.00
57606;BME280;43430;48.204;11.556;2023-01-27T05:22:40;96096.38;;;-2.35;100.00
57606;BME280;43430;48.204;11.556;2023-01-27T05:25:07;96095.16;;;-2.31;100.00
57606;BME280;43430;48.204;11.556;2023-01-27T05:27:32;96099.75;;;-2.25;100.00
57606;BME280;43430;48.204;11.556;2023-01-27T05:29:57;96097.59;;;-2.20;100.00
57606;BME280;43430;48.204;11.556;2023-01-27T05:32:23;96103.56;;;-2.20;100.00
57606;BME280;43430;48.204;11.556;2023-01-27T05:34:48;96104.66;;;-2.22;100.00
57606;BME280;43430;48.204;11.556;2023-01-27T05:37:14;96112.00;;;-2.27;100.00
57606;BME280;43430;48.204;11.556;2023-01-27T05:39:39;96109.53;;;-2.19;100.00
57606;BME280;43430;48.204;11.556;2023-01-27T05:42:04;96114.84;;;-2.21;100.00
57606;BME280;43430;48.204;11.556;2023-01-27T05:44:30;96124.34;;;-2.21;100.00
57606;BME280;43430;48.204;11.556;2023-01-27T05:46:55;96110.34;;;-2.19;100.00
57606;BME280;43430;48.204;11.556;2023-01-27T05:49:21;96113.19;;;-2.12;100.00
57606;BME280;43430;48.204;11.556;2023-01-27T05:51:46;96108.59;;;-2.18;100.00
57606;BME280;43430;48.204;11.556;2023-01-27T05:54:11;96118.38;;;-2.22;100.00
57606;BME280;43430;48.204;11.556;2023-01-27T05:56:37;96122.09;;;-2.34;100.00
57606;BME280;43430;48.204;11.556;2023-01-27T05:59:03;96130.66;;;-2.43;100.00
57606;BME280;43430;48.204;11.556;2023-01-27T06:01:31;96135.94;;;-2.45;100.00
57606;BME280;43430;48.204;11.556;2023-01-27T06:03:57;96137.97;;;-2.48;100.00
57606;BME280;43430;48.204;11.556;2023-01-27T06:06:24;96148.31;;;-2.39;100.00
57606;BME280;43430;48.204;11.556;2023-01-27T06:08:50;96144.22;;;-2.31;100.00
57606;BME280;43430;48.204;11.556;2023-01-27T06:11:17;96138.25;;;-2.32;100.00
57606;BME280;43430;48.204;11.556;2023-01-27T06:13:44;96139.59;;;-2.38;100.00
57606;BME280;43430;48.204;11.556;2023-01-27T06:16:12;96141.63;;;-2.31;100.00
57606;BME280;43430;48.204;11.556;2023-01-27T06:18:38;96148.69;;;-2.24;100.00
57606;BME280;43430;48.204;11.556;2023-01-27T06:21:06;96145.44;;;-2.26;100.00
57606;BME280;43430;48.204;11.556;2023-01-27T06:23:32;96142.44;;;-2.21;100.00
57606;BME280;43430;48.204;11.556;2023-01-27T06:26:02;96142.44;;;-2.21;100.00
57606;BME280;43430;48.204;11.556;2023-01-27T06:28:28;96136.88;;;-2.26;100.00
57606;BME280;43430;48.204;11.556;2023-01-27T06:30:54;96143.56;;;-2.33;100.00
57606;BME280;43430;48.204;11.556;2023-01-27T06:33:20;96145.72;;;-2.39;100.00
57606;BME280;43430;48.204;11.556;2023-01-27T06:35:45;96158.50;;;-2.37;100.00
57606;BME280;43430;48.204;11.556;2023-01-27T06:38:12;96155.50;;;-2.32;100.00
57606;BME280;43430;48.204;11.556;2023-01-27T06:40:40;96163.94;;;-2.30;100.00
57606;BME280;43430;48.204;11.556;2023-01-27T06:43:10;96173.69;;;-2.24;100.00
57606;BME280;43430;48.204;11.556;2023-01-27T06:45:36;96179.13;;;-2.27;100.00
57606;BME280;43430;48.204;11.556;2023-01-27T06:48:01;96179.84;;;-2.25;100.00
57606;BME280;43430;48.204;11.556;2023-01-27T06:50:28;96186.63;;;-2.24;100.00
57606;BME280;43430;48.204;11.556;2023-01-27T06:53:02;96182.16;;;-2.32;100.00
57606;BME280;43430;48.204;11.556;2023-01-27T06:55:28;96191.41;;;-2.29;100.00
57606;BME280;43430;48.204;11.556;2023-01-27T06:57:53;96190.00;;;-2.24;100.00
57606;BME280;43430;48.204;11.556;2023-01-27T07:00:19;96185.25;;;-2.09;100.00
57606;BME280;43430;48.204;11.556;2023-01-27T07:02:44;96183.06;;;-2.13;100.00
57606;BME280;43430;48.204;11.556;2023-01-27T07:05:10;96177.78;;;-2.12;100.00
57606;BME280;43430;48.204;11.556;2023-01-27T07:07:36;96178.44;;;-2.10;100.00
57606;BME280;43430;48.204;11.556;2023-01-27T07:10:03;96185.13;;;-2.17;100.00
57606;BME280;43430;48.204;11.556;2023-01-27T07:12:28;96191.41;;;-2.20;100.00
57606;BME280;43430;48.204;11.556;2023-01-27T07:14:54;96194.38;;;-2.15;100.00
57606;BME280;43430;48.204;11.556;2023-01-27T07:17:19;96187.16;;;-2.11;100.00
57606;BME280;43430;48.204;11.556;2023-01-27T07:19:44;96186.22;;;-2.29;100.00
57606;BME280;43430;48.204;11.556;2023-01-27T07:22:10;96191.50;;;-2.21;100.00
57606;BME280;43430;48.204;11.556;2023-01-27T07:24:35;96187.44;;;-2.14;100.00
57606;BME280;43430;48.204;11.556;2023-01-27T07:27:01;96182.44;;;-2.54;100.00
57606;BME280;43430;48.204;11.556;2023-01-27T07:29:26;96190.56;;;-2.49;100.00
57606;BME280;43430;48.204;11.556;2023-01-27T07:31:52;96193.56;;;-2.34;100.00
57606;BME280;43430;48.204;11.556;2023-01-27T07:34:17;96197.78;;;-2.33;100.00
57606;BME280;43430;48.204;11.556;2023-01-27T07:36:42;96190.03;;;-2.33;100.00
57606;BME280;43430;48.204;11.556;2023-01-27T07:39:08;96188.66;;;-2.38;100.00
57606;BME280;43430;48.204;11.556;2023-01-27T07:41:33;96191.25;;;-2.28;100.00
57606;BME280;43430;48.204;11.556;2023-01-27T07:43:59;96189.63;;;-2.19;100.00
57606;BME280;43430;48.204;11.556;2023-01-27T07:46:24;96184.31;;;-2.18;100.00
57606;BME280;43430;48.204;11.556;2023-01-27T07:48:49;96184.72;;;-2.12;100.00
57606;BME280;43430;48.204;11.556;2023-01-27T07:51:15;96184.72;;;-2.03;100.00
57606;BME280;43430;48.204;11.556;2023-01-27T07:53:41;96183.75;;;-2.11;100.00
57606;BME280;43430;48.204;11.556;2023-01-27T07:56:07;96190.00;;;-2.14;100.00
57606;BME280;43430;48.204;11.556;2023-01-27T07:58:40;96177.09;;;-2.04;100.00
57606;BME280;43430;48.204;11.556;2023-01-27T08:01:10;96187.00;;;-2.00;100.00
57606;BME280;43430;48.204;11.556;2023-01-27T08:03:36;96181.00;;;-2.00;100.00
57606;BME280;43430;48.204;11.556;2023-01-27T08:06:10;96177.75;;;-1.93;100.00
57606;BME280;43430;48.204;11.556;2023-01-27T08:08:36;96181.16;;;-1.92;100.00
57606;BME280;43430;48.204;11.556;2023-01-27T08:11:03;96196.41;;;-1.99;100.00
57606;BME280;43430;48.204;11.556;2023-01-27T08:13:29;96183.34;;;-2.07;100.00
57606;BME280;43430;48.204;11.556;2023-01-27T08:15:59;96179.13;;;-2.08;100.00
57606;BME280;43430;48.204;11.556;2023-01-27T08:18:26;96183.75;;;-2.02;100.00
57606;BME280;43430;48.204;11.556;2023-01-27T08:20:52;96193.13;;;-2.01;100.00
57606;BME280;43430;48.204;11.556;2023-01-27T08:23:21;96191.50;;;-2.02;100.00
57606;BME280;43430;48.204;11.556;2023-01-27T08:25:54;96202.91;;;-1.95;100.00
57606;BME280;43430;48.204;11.556;2023-01-27T08:28:21;96203.19;;;-1.98;100.00
57606;BME280;43430;48.204;11.556;2023-01-27T08:30:47;96201.56;;;-1.99;100.00
57606;BME280;43430;48.204;11.556;2023-01-27T08:33:16;96195.16;;;-1.95;100.00
57606;BME280;43430;48.204;11.556;2023-01-27T08:35:42;96192.97;;;-1.89;100.00
57606;BME280;43430;48.204;11.556;2023-01-27T08:38:10;96209.84;;;-1.95;100.00
57606;BME280;43430;48.204;11.556;2023-01-27T08:40:37;96212.84;;;-2.00;100.00
57606;BME280;43430;48.204;11.556;2023-01-27T08:43:02;96209.59;;;-2.11;100.00
57606;BME280;43430;48.204;11.556;2023-01-27T08:45:28;96209.59;;;-2.02;100.00
57606;BME280;43430;48.204;11.556;2023-01-27T08:47:53;96208.22;;;-1.96;100.00
57606;BME280;43430;48.204;11.556;2023-01-27T08:50:19;96209.44;;;-1.91;100.00
57606;BME280;43430;48.204;11.556;2023-01-27T08:52:44;96218.41;;;-1.95;100.00
57606;BME280;43430;48.204;11.556;2023-01-27T08:55:10;96216.66;;;-1.94;100.00
57606;BME280;43430;48.204;11.556;2023-01-27T08:57:35;96217.88;;;-1.88;100.00
57606;BME280;43430;48.204;11.556;2023-01-27T09:00:01;96222.34;;;-1.91;100.00
57606;BME280;43430;48.204;11.556;2023-01-27T09:02:26;96217.34;;;-1.92;100.00
57606;BME280;43430;48.204;11.556;2023-01-27T09:04:52;96227.13;;;-1.96;100.00
57606;BME280;43430;48.204;11.556;2023-01-27T09:07:17;96221.81;;;-1.94;100.00
57606;BME280;43430;48.204;11.556;2023-01-27T09:09:47;96221.69;;;-1.93;100.00
57606;BME280;43430;48.204;11.556;2023-01-27T09:12:12;96222.50;;;-1.82;100.00
57606;BME280;43430;48.204;11.556;2023-01-27T09:14:37;96216.88;;;-1.68;100.00
57606;BME280;43430;48.204;11.556;2023-01-27T09:17:04;96217.53;;;-1.66;100.00
57606;BME280;43430;48.204;11.556;2023-01-27T09:19:29;96223.78;;;-1.59;100.00
57606;BME280;43430;48.204;11.556;2023-01-27T09:21:55;96224.47;;;-1.57;100.00
57606;BME280;43430;48.204;11.556;2023-01-27T09:24:20;96215.75;;;-1.56;100.00
57606;BME280;43430;48.204;11.556;2023-01-27T09:26:46;96225.81;;;-1.62;100.00
57606;BME280;43430;48.204;11.556;2023-01-27T09:29:11;96231.81;;;-1.62;100.00
57606;BME280;43430;48.204;11.556;2023-01-27T09:31:37;96226.25;;;-1.67;100.00
57606;BME280;43430;48.204;11.556;2023-01-27T09:34:02;96229.81;;;-1.68;100.00
57606;BME280;43430;48.204;11.556;2023-01-27T09:36:28;96237.50;;;-1.58;100.00
57606;BME280;43430;48.204;11.556;2023-01-27T09:39:03;96232.91;;;-1.55;100.00
57606;BME280;43430;48.204;11.556;2023-01-27T09:47:07;96226.28;;;-1.77;100.00
57606;BME280;43430;48.204;11.556;2023-01-27T09:55:08;96228.31;;;-1.80;100.00
57606;BME280;43430;48.204;11.556;2023-01-27T10:03:24;96227.63;;;-1.73;100.00
57606;BME280;43430;48.204;11.556;2023-01-27T10:13:32;96226.25;;;-1.57;100.00
57606;BME280;43430;48.204;11.556;2023-01-27T10:18:57;96220.75;;;-1.45;100.00
57606;BME280;43430;48.204;11.556;2023-01-27T10:21:35;96229.28;;;-1.34;100.00
57606;BME280;43430;48.204;11.556;2023-01-27T10:24:31;96214.88;;;-1.37;100.00
57606;BME280;43430;48.204;11.556;2023-01-27T10:27:22;96211.75;;;-1.31;100.00
57606;BME280;43430;48.204;11.556;2023-01-27T10:29:57;96215.28;;;-1.41;100.00
57606;BME280;43430;48.204;11.556;2023-01-27T10:32:27;96213.28;;;-1.48;100.00
57606;BME280;43430;48.204;11.556;2023-01-27T10:35:14;96216.53;;;-1.46;100.00
57606;BME280;43430;48.204;11.556;2023-01-27T10:40:36;96230.44;;;-1.47;100.00
57606;BME280;43430;48.204;11.556;2023-01-27T10:43:11;96216.53;;;-1.46;100.00
57606;BME280;43430;48.204;11.556;2023-01-27T10:45:51;96226.09;;;-1.56;100.00
57606;BME280;43430;48.204;11.556;2023-01-27T10:48:25;96225.25;;;-1.47;100.00
57606;BME280;43430;48.204;11.556;2023-01-27T10:50:59;96221.03;;;-1.48;100.00
57606;BME280;43430;48.204;11.556;2023-01-27T10:53:34;96221.03;;;-1.48;100.00
57606;BME280;43430;48.204;11.556;2023-01-27T10:56:16;96215.28;;;-1.41;100.00
57606;BME280;43430;48.204;11.556;2023-01-27T10:59:04;96218.28;;;-1.36;100.00
57606;BME280;43430;48.204;11.556;2023-01-27T11:01:34;96219.25;;;-1.37;100.00
57606;BME280;43430;48.204;11.556;2023-01-27T11:06:37;96221.16;;;-1.39;100.00
57606;BME280;43430;48.204;11.556;2023-01-27T11:09:45;96211.75;;;-1.40;100.00
57606;BME280;43430;48.204;11.556;2023-01-27T11:12:10;96208.84;;;-1.28;100.00
57606;BME280;43430;48.204;11.556;2023-01-27T11:14:48;96218.06;;;-1.15;100.00
57606;BME280;43430;48.204;11.556;2023-01-27T11:17:27;96209.84;;;-1.11;100.00
57606;BME280;43430;48.204;11.556;2023-01-27T11:19:55;96201.69;;;-1.06;100.00
57606;BME280;43430;48.204;11.556;2023-01-27T11:22:27;96198.22;;;-0.97;100.00
57606;BME280;43430;48.204;11.556;2023-01-27T11:28:02;96199.53;;;-0.93;100.00
57606;BME280;43430;48.204;11.556;2023-01-27T11:30:37;96202.22;;;-1.03;100.00
57606;BME280;43430;48.204;11.556;2023-01-27T11:35:57;96202.00;;;-1.19;100.00
57606;BME280;43430;48.204;11.556;2023-01-27T11:38:22;96199.78;;;-1.14;100.00
57606;BME280;43430;48.204;11.556;2023-01-27T11:40:49;96197.94;;;-1.22;100.00
57606;BME280;43430;48.204;11.556;2023-01-27T11:43:24;96199.50;;;-1.11;100.00
57606;BME280;43430;48.204;11.556;2023-01-27T11:45:55;96197.41;;;-1.25;100.00
57606;BME280;43430;48.204;11.556;2023-01-27T11:48:23;96188.91;;;-1.17;100.00
57606;BME280;43430;48.204;11.556;2023-01-27T11:50:48;96193.91;;;-1.06;100.00
57606;BME280;43430;48.204;11.556;2023-01-27T11:53:25;96192.50;;;-1.01;100.00
57606;BME280;43430;48.204;11.556;2023-01-27T11:55:57;96191.66;;;-0.91;100.00
57606;BME280;43430;48.204;11.556;2023-01-27T11:58:35;96186.94;;;-1.24;100.00
57606;BME280;43430;48.204;11.556;2023-01-27T12:01:10;96179.50;;;-1.09;100.00
57606;BME280;43430;48.204;11.556;2023-01-27T12:06:30;96184.59;;;-1.17;100.00
57606;BME280;43430;48.204;11.556;2023-01-27T12:08:57;96186.19;;;-1.16;100.00
57606;BME280;43430;48.204;11.556;2023-01-27T12:11:24;96182.97;;;-1.00;100.00
57606;BME280;43430;48.204;11.556;2023-01-27T12:13:53;96181.31;;;-0.91;100.00
57606;BME280;43430;48.204;11.556;2023-01-27T12:16:20;96174.50;;;-0.92;100.00
57606;BME280;43430;48.204;11.556;2023-01-27T12:18:57;96168.97;;;-1.07;100.00
57606;BME280;43430;48.204;11.556;2023-01-27T12:21:34;96167.19;;;-1.07;100.00
57606;BME280;43430;48.204;11.556;2023-01-27T12:24:02;96169.22;;;-1.01;100.00
57606;BME280;43430;48.204;11.556;2023-01-27T12:26:37;96166.75;;;-0.92;100.00
57606;BME280;43430;48.204;11.556;2023-01-27T12:29:05;96165.72;;;-0.82;100.00
57606;BME280;43430;48.204;11.556;2023-01-27T12:31:43;96159.03;;;-0.84;100.00
57606;BME280;43430;48.204;11.556;2023-01-27T12:34:32;96159.03;;;-0.84;100.00
57606;BME280;43430;48.204;11.556;2023-01-27T12:37:01;96154.44;;;-0.90;100.00
57606;BME280;43430;48.204;11.556;2023-01-27T12:39:45;96164.22;;;-0.84;100.00
57606;BME280;43430;48.204;11.556;2023-01-27T12:42:35;96162.31;;;-0.82;100.00
57606;BME280;43430;48.204;11.556;2023-01-27T12:45:19;96176.13;;;-0.91;100.00
57606;BME280;43430;48.204;11.556;2023-01-27T12:50:26;96181.97;;;-0.89;100.00
57606;BME280;43430;48.204;11.556;2023-01-27T12:53:15;96168.06;;;-0.88;100.00
57606;BME280;43430;48.204;11.556;2023-01-27T12:58:58;96154.16;;;-0.87;100.00
57606;BME280;43430;48.204;11.556;2023-01-27T13:01:27;96155.78;;;-0.86;100.00
57606;BME280;43430;48.204;11.556;2023-01-27T13:04:16;96144.56;;;-0.77;100.00
57606;BME280;43430;48.204;11.556;2023-01-27T13:06:53;96156.97;;;-0.63;100.00
57606;BME280;43430;48.204;11.556;2023-01-27T13:09:29;96146.69;;;-0.73;100.00
57606;BME280;43430;48.204;11.556;2023-01-27T13:11:57;96145.81;;;-0.81;100.00
57606;BME280;43430;48.204;11.556;2023-01-27T13:14:28;96142.84;;;-0.86;100.00
57606;BME280;43430;48.204;11.556;2023-01-27T13:16:56;96144.56;;;-0.77;100.00
57606;BME280;43430;48.204;11.556;2023-01-27T13:19:39;96147.53;;;-0.72;100.00
57606;BME280;43430;48.204;11.556;2023-01-27T13:22:12;96142.72;;;-0.67;100.00
57606;BME280;43430;48.204;11.556;2023-01-27T13:24:41;96145.88;;;-0.73;100.00
57606;BME280;43430;48.204;11.556;2023-01-27T13:27:12;96138.06;;;-0.81;100.00
57606;BME280;43430;48.204;11.556;2023-01-27T13:29:39;96137.44;;;-0.93;100.00
57606;BME280;43430;48.204;11.556;2023-01-27T13:32:26;96150.44;;;-1.03;100.00
57606;BME280;43430;48.204;11.556;2023-01-27T13:35:04;96146.38;;;-1.05;100.00
57606;BME280;43430;48.204;11.556;2023-01-27T13:37:43;96150.44;;;-1.03;100.00
57606;BME280;43430;48.204;11.556;2023-01-27T13:40:19;96157.25;;;-1.02;100.00
57606;BME280;43430;48.204;11.556;2023-01-27T13:45:21;96160.13;;;-1.05;100.00
57606;BME280;43430;48.204;11.556;2023-01-27T13:47:55;96163.53;;;-1.04;100.00
57606;BME280;43430;48.204;11.556;2023-01-27T13:53:02;96155.50;;;-0.83;100.00
57606;BME280;43430;48.204;11.556;2023-01-27T13:55:58;96152.78;;;-0.82;100.00